sensor_id;sensor_type;location;lat;lon;timestamp;P1;P2;P0
62778;PMS7003;48821;48.796;2.396;2023-05-13T00:00:31;13.33;7.33;6.33
62778;PMS7003;48821;48.796;2.396;2023-05-13T00:01:41;10.50;8.00;6.00
62778;PMS7003;48821;48.796;2.396;2023-05-13T00:02:52;9.50;8.00;5.50
62778;PMS7003;48821;48.796;2.396;2023-05-13T00:04:04;15.00;10.67;7.83
62778;PMS7003;48821;48.796;2.396;2023-05-13T00:05:19;10.86;10.00;7.57
62778;PMS7003;48821;48.796;2.396;2023-05-13T00:06:31;8.50;7.25;5.50
62778;PMS7003;48821;48.796;2.396;2023-05-13T00:07:41;11.00;9.00;7.00
62778;PMS7003;48821;48.796;2.396;2023-05-13T00:08:52;5.00;4.67;3.67
62778;PMS7003;48821;48.796;2.396;2023-05-13T00:10:02;14.50;8.00;6.00
62778;PMS7003;48821;48.796;2.396;2023-05-13T00:11:13;12.25;10.25;7.75
62778;PMS7003;48821;48.796;2.396;2023-05-13T00:12:24;14.00;10.50;8.00
62778;PMS7003;48821;48.796;2.396;2023-05-13T00:13:35;10.50;9.00;6.50
62778;PMS7003;48821;48.796;2.396;2023-05-13T00:14:46;9.33;8.67;6.00
62778;PMS7003;48821;48.796;2.396;2023-05-13T00:15:57;13.25;8.50;6.25
62778;PMS7003;48821;48.796;2.396;2023-05-13T00:17:07;11.50;10.00;8.00
62778;PMS7003;48821;48.796;2.396;2023-05-13T00:18:19;10.33;9.00;7.33
62778;PMS7003;48821;48.796;2.396;2023-05-13T00:19:30;13.67;10.00;8.00
62778;PMS7003;48821;48.796;2.396;2023-05-13T00:20:41;10.00;10.00;7.00
62778;PMS7003;48821;48.796;2.396;2023-05-13T00:21:52;10.00;7.67;6.00
62778;PMS7003;48821;48.796;2.396;2023-05-13T00:23:02;11.00;8.50;6.50
62778;PMS7003;48821;48.796;2.396;2023-05-13T00:24:13;14.50;11.00;8.00
62778;PMS7003;48821;48.796;2.396;2023-05-13T00:25:24;12.00;10.33;7.00
62778;PMS7003;48821;48.796;2.396;2023-05-13T00:26:35;10.00;10.00;6.50
62778;PMS7003;48821;48.796;2.396;2023-05-13T00:27:46;12.50;9.00;7.00
62778;PMS7003;48821;48.796;2.396;2023-05-13T00:28:58;15.50;12.50;8.83
62778;PMS7003;48821;48.796;2.396;2023-05-13T00:30:09;7.50;7.00;6.00
62778;PMS7003;48821;48.796;2.396;2023-05-13T00:31:20;15.00;10.50;7.50
62778;PMS7003;48821;48.796;2.396;2023-05-13T00:32:31;10.00;9.00;7.00
62778;PMS7003;48821;48.796;2.396;2023-05-13T00:33:42;11.50;10.50;8.00
62778;PMS7003;48821;48.796;2.396;2023-05-13T00:34:53;13.25;11.00;8.25
62778;PMS7003;48821;48.796;2.396;2023-05-13T00:36:03;10.50;10.00;7.00
62778;PMS7003;48821;48.796;2.396;2023-05-13T00:37:16;11.83;10.33;6.83
62778;PMS7003;48821;48.796;2.396;2023-05-13T00:38:26;12.00;9.00;7.00
62778;PMS7003;48821;48.796;2.396;2023-05-13T00:39:37;11.33;9.67;6.33
62778;PMS7003;48821;48.796;2.396;2023-05-13T00:40:47;8.67;8.00;6.00
62778;PMS7003;48821;48.796;2.396;2023-05-13T00:41:58;14.50;9.50;8.00
62778;PMS7003;48821;48.796;2.396;2023-05-13T00:43:09;11.75;11.00;8.50
62778;PMS7003;48821;48.796;2.396;2023-05-13T00:44:22;14.80;12.40;8.60
62778;PMS7003;48821;48.796;2.396;2023-05-13T00:45:36;10.14;9.29;7.71
62778;PMS7003;48821;48.796;2.396;2023-05-13T00:46:48;9.00;7.50;4.00
62778;PMS7003;48821;48.796;2.396;2023-05-13T00:47:58;11.00;9.50;6.00
62778;PMS7003;48821;48.796;2.396;2023-05-13T00:49:09;11.00;10.00;8.00
62778;PMS7003;48821;48.796;2.396;2023-05-13T00:50:21;9.50;9.00;6.50
62778;PMS7003;48821;48.796;2.396;2023-05-13T00:51:31;9.00;9.00;7.00
62778;PMS7003;48821;48.796;2.396;2023-05-13T00:52:42;14.00;11.50;8.50
62778;PMS7003;48821;48.796;2.396;2023-05-13T00:53:53;9.67;9.67;7.33
62778;PMS7003;48821;48.796;2.396;2023-05-13T00:55:05;12.00;11.00;7.50
62778;PMS7003;48821;48.796;2.396;2023-05-13T00:56:19;10.50;10.50;8.00
62778;PMS7003;48821;48.796;2.396;2023-05-13T00:57:33;12.00;9.50;8.00
62778;PMS7003;48821;48.796;2.396;2023-05-13T00:58:44;9.50;7.50;5.50
62778;PMS7003;48821;48.796;2.396;2023-05-13T00:59:55;8.50;8.00;6.00
62778;PMS7003;48821;48.796;2.396;2023-05-13T01:02:21;13.75;9.50;7.50
62778;PMS7003;48821;48.796;2.396;2023-05-13T01:03:58;16.50;10.00;7.00
62778;PMS7003;48821;48.796;2.396;2023-05-13T01:06:51;11.50;10.50;7.00
62778;PMS7003;48821;48.796;2.396;2023-05-13T01:08:09;8.50;8.50;7.00
62778;PMS7003;48821;48.796;2.396;2023-05-13T01:10:44;13.00;10.50;7.00
62778;PMS7003;48821;48.796;2.396;2023-05-13T01:11:56;10.00;10.00;8.00
62778;PMS7003;48821;48.796;2.396;2023-05-13T01:13:12;11.00;11.00;8.00
62778;PMS7003;48821;48.796;2.396;2023-05-13T01:14:27;11.50;11.50;8.00
62778;PMS7003;48821;48.796;2.396;2023-05-13T01:15:46;11.00;10.83;8.00
62778;PMS7003;48821;48.796;2.396;2023-05-13T01:17:06;11.00;10.50;7.00
62778;PMS7003;48821;48.796;2.396;2023-05-13T01:18:19;14.00;11.50;8.50
62778;PMS7003;48821;48.796;2.396;2023-05-13T01:19:51;13.50;12.00;8.50
62778;PMS7003;48821;48.796;2.396;2023-05-13T01:21:04;12.00;10.50;8.00
62778;PMS7003;48821;48.796;2.396;2023-05-13T01:22:15;14.00;8.00;6.00
62778;PMS7003;48821;48.796;2.396;2023-05-13T01:23:26;10.33;9.67;7.33
62778;PMS7003;48821;48.796;2.396;2023-05-13T01:24:39;15.14;15.14;9.86
62778;PMS7003;48821;48.796;2.396;2023-05-13T01:25:51;13.29;11.71;9.57
62778;PMS7003;48821;48.796;2.396;2023-05-13T01:27:02;9.50;9.50;7.00
62778;PMS7003;48821;48.796;2.396;2023-05-13T01:28:14;11.33;11.33;7.83
62778;PMS7003;48821;48.796;2.396;2023-05-13T01:29:25;10.00;9.00;6.00
62778;PMS7003;48821;48.796;2.396;2023-05-13T01:30:36;17.00;11.00;8.00
62778;PMS7003;48821;48.796;2.396;2023-05-13T01:31:47;13.25;10.25;8.00
62778;PMS7003;48821;48.796;2.396;2023-05-13T01:32:59;16.00;12.67;8.67
62778;PMS7003;48821;48.796;2.396;2023-05-13T01:34:11;11.00;11.00;8.50
62778;PMS7003;48821;48.796;2.396;2023-05-13T01:35:26;14.86;13.00;9.86
62778;PMS7003;48821;48.796;2.396;2023-05-13T01:36:40;15.33;12.83;9.33
62778;PMS7003;48821;48.796;2.396;2023-05-13T01:37:50;11.50;9.00;7.00
62778;PMS7003;48821;48.796;2.396;2023-05-13T01:39:01;14.00;10.00;8.00
62778;PMS7003;48821;48.796;2.396;2023-05-13T01:40:12;14.50;12.00;8.50
62778;PMS7003;48821;48.796;2.396;2023-05-13T01:41:23;14.50;13.50;9.50
62778;PMS7003;48821;48.796;2.396;2023-05-13T01:42:34;12.00;9.00;6.00
62778;PMS7003;48821;48.796;2.396;2023-05-13T01:43:45;14.00;14.00;9.00
62778;PMS7003;48821;48.796;2.396;2023-05-13T01:44:56;14.00;11.00;8.00
62778;PMS7003;48821;48.796;2.396;2023-05-13T01:46:11;14.75;12.00;9.00
62778;PMS7003;48821;48.796;2.396;2023-05-13T01:47:21;14.00;10.00;7.00
62778;PMS7003;48821;48.796;2.396;2023-05-13T01:48:32;17.25;13.75;9.50
62778;PMS7003;48821;48.796;2.396;2023-05-13T01:49:45;15.83;13.83;9.00
62778;PMS7003;48821;48.796;2.396;2023-05-13T01:50:55;16.00;13.00;8.00
62778;PMS7003;48821;48.796;2.396;2023-05-13T01:52:06;17.00;15.00;8.50
62778;PMS7003;48821;48.796;2.396;2023-05-13T01:53:18;8.67;8.67;5.33
62778;PMS7003;48821;48.796;2.396;2023-05-13T01:54:28;15.00;13.50;9.00
62778;PMS7003;48821;48.796;2.396;2023-05-13T01:55:40;12.25;9.75;7.00
62778;PMS7003;48821;48.796;2.396;2023-05-13T01:56:50;14.50;11.00;9.00
62778;PMS7003;48821;48.796;2.396;2023-05-13T01:58:02;11.00;8.50;6.00
62778;PMS7003;48821;48.796;2.396;2023-05-13T01:59:12;13.50;13.00;9.00
62778;PMS7003;48821;48.796;2.396;2023-05-13T02:00:23;17.50;12.25;9.75
62778;PMS7003;48821;48.796;2.396;2023-05-13T02:01:34;12.00;10.50;8.00
62778;PMS7003;48821;48.796;2.396;2023-05-13T02:02:45;13.50;13.00;9.00
62778;PMS7003;48821;48.796;2.396;2023-05-13T02:03:56;20.50;16.00;10.00
62778;PMS7003;48821;48.796;2.396;2023-05-13T02:05:11;13.86;12.14;9.29
62778;PMS7003;48821;48.796;2.396;2023-05-13T02:06:24;12.83;11.67;8.50
62778;PMS7003;48821;48.796;2.396;2023-05-13T02:07:35;15.00;11.00;8.50
62778;PMS7003;48821;48.796;2.396;2023-05-13T02:08:45;11.50;10.50;7.50
62778;PMS7003;48821;48.796;2.396;2023-05-13T02:09:56;17.50;10.50;8.00
62778;PMS7003;48821;48.796;2.396;2023-05-13T02:11:09;14.00;13.00;10.33
62778;PMS7003;48821;48.796;2.396;2023-05-13T02:12:23;11.86;10.43;8.00
62778;PMS7003;48821;48.796;2.396;2023-05-13T02:13:33;15.00;14.00;9.00
62778;PMS7003;48821;48.796;2.396;2023-05-13T02:14:45;13.17;11.17;8.50
62778;PMS7003;48821;48.796;2.396;2023-05-13T02:15:56;15.50;14.50;8.25
62778;PMS7003;48821;48.796;2.396;2023-05-13T02:17:08;16.33;13.33;9.67
62778;PMS7003;48821;48.796;2.396;2023-05-13T02:18:18;14.00;14.00;10.00
62778;PMS7003;48821;48.796;2.396;2023-05-13T02:19:29;16.00;12.50;8.00
62778;PMS7003;48821;48.796;2.396;2023-05-13T02:20:40;16.00;10.50;8.00
62778;PMS7003;48821;48.796;2.396;2023-05-13T02:21:52;14.83;11.33;8.00
62778;PMS7003;48821;48.796;2.396;2023-05-13T02:23:05;14.67;13.00;8.67
62778;PMS7003;48821;48.796;2.396;2023-05-13T02:24:16;17.00;13.00;10.00
62778;PMS7003;48821;48.796;2.396;2023-05-13T02:25:28;15.33;11.00;7.50
62778;PMS7003;48821;48.796;2.396;2023-05-13T02:26:41;18.43;16.86;10.00
62778;PMS7003;48821;48.796;2.396;2023-05-13T02:27:52;11.00;9.50;7.00
62778;PMS7003;48821;48.796;2.396;2023-05-13T02:29:04;17.43;15.71;10.71
62778;PMS7003;48821;48.796;2.396;2023-05-13T02:30:17;13.17;12.67;9.17
62778;PMS7003;48821;48.796;2.396;2023-05-13T02:31:27;9.67;8.67;4.67
62778;PMS7003;48821;48.796;2.396;2023-05-13T02:32:38;16.25;13.50;9.25
62778;PMS7003;48821;48.796;2.396;2023-05-13T02:33:52;17.33;13.00;9.00
62778;PMS7003;48821;48.796;2.396;2023-05-13T02:35:04;16.33;14.67;10.33
62778;PMS7003;48821;48.796;2.396;2023-05-13T02:36:17;15.50;15.50;10.50
62778;PMS7003;48821;48.796;2.396;2023-05-13T02:37:28;15.50;14.00;10.50
62778;PMS7003;48821;48.796;2.396;2023-05-13T02:38:40;15.86;12.43;9.29
62778;PMS7003;48821;48.796;2.396;2023-05-13T02:39:51;13.00;11.50;9.00
62778;PMS7003;48821;48.796;2.396;2023-05-13T02:41:03;16.00;15.86;10.00
62778;PMS7003;48821;48.796;2.396;2023-05-13T02:42:16;21.43;17.00;11.29
62778;PMS7003;48821;48.796;2.396;2023-05-13T02:43:29;15.71;15.14;11.29
62778;PMS7003;48821;48.796;2.396;2023-05-13T02:44:41;18.33;16.67;9.67
62778;PMS7003;48821;48.796;2.396;2023-05-13T02:45:54;17.29;16.14;11.00
62778;PMS7003;48821;48.796;2.396;2023-05-13T02:47:05;15.50;13.50;9.00
62778;PMS7003;48821;48.796;2.396;2023-05-13T02:48:16;22.60;14.80;10.60
62778;PMS7003;48821;48.796;2.396;2023-05-13T02:49:29;14.14;13.86;10.43
62778;PMS7003;48821;48.796;2.396;2023-05-13T02:50:40;19.67;15.67;10.00
62778;PMS7003;48821;48.796;2.396;2023-05-13T02:51:53;19.71;17.14;12.14
62778;PMS7003;48821;48.796;2.396;2023-05-13T02:53:06;17.86;15.00;10.86
62778;PMS7003;48821;48.796;2.396;2023-05-13T02:54:17;17.67;15.33;8.67
62778;PMS7003;48821;48.796;2.396;2023-05-13T02:55:29;16.60;16.00;11.40
62778;PMS7003;48821;48.796;2.396;2023-05-13T02:56:42;17.71;17.71;12.29
62778;PMS7003;48821;48.796;2.396;2023-05-13T02:57:54;10.67;10.50;9.50
62778;PMS7003;48821;48.796;2.396;2023-05-13T02:59:05;17.00;13.00;11.50
62778;PMS7003;48821;48.796;2.396;2023-05-13T03:00:17;19.00;16.60;11.20
62778;PMS7003;48821;48.796;2.396;2023-05-13T03:01:29;20.60;19.00;13.00
62778;PMS7003;48821;48.796;2.396;2023-05-13T03:02:41;19.20;15.80;12.00
62778;PMS7003;48821;48.796;2.396;2023-05-13T03:03:53;16.80;14.60;10.20
62778;PMS7003;48821;48.796;2.396;2023-05-13T03:05:05;21.80;18.60;14.00
62778;PMS7003;48821;48.796;2.396;2023-05-13T03:06:17;21.80;18.40;13.60
62778;PMS7003;48821;48.796;2.396;2023-05-13T03:07:29;26.40;21.80;12.20
62778;PMS7003;48821;48.796;2.396;2023-05-13T03:08:41;23.80;19.80;13.00
62778;PMS7003;48821;48.796;2.396;2023-05-13T03:09:53;17.20;16.80;11.40
62778;PMS7003;48821;48.796;2.396;2023-05-13T03:11:05;24.14;20.71;14.71
62778;PMS7003;48821;48.796;2.396;2023-05-13T03:12:17;21.20;18.80;13.00
62778;PMS7003;48821;48.796;2.396;2023-05-13T03:13:29;20.00;16.80;11.40
62778;PMS7003;48821;48.796;2.396;2023-05-13T03:14:42;20.43;17.29;12.00
62778;PMS7003;48821;48.796;2.396;2023-05-13T03:15:53;20.50;16.00;11.50
62778;PMS7003;48821;48.796;2.396;2023-05-13T03:17:05;17.20;17.00;12.40
62778;PMS7003;48821;48.796;2.396;2023-05-13T03:18:17;23.20;21.80;12.20
62778;PMS7003;48821;48.796;2.396;2023-05-13T03:19:29;22.00;18.80;14.20
62778;PMS7003;48821;48.796;2.396;2023-05-13T03:20:42;22.14;17.29;12.57
62778;PMS7003;48821;48.796;2.396;2023-05-13T03:21:54;18.60;17.20;11.40
62778;PMS7003;48821;48.796;2.396;2023-05-13T03:23:05;24.00;21.67;15.00
62778;PMS7003;48821;48.796;2.396;2023-05-13T03:24:18;20.43;19.57;13.29
62778;PMS7003;48821;48.796;2.396;2023-05-13T03:25:29;24.00;19.00;13.80
62778;PMS7003;48821;48.796;2.396;2023-05-13T03:26:41;18.67;17.33;12.00
62778;PMS7003;48821;48.796;2.396;2023-05-13T03:27:53;20.80;20.40;13.20
62778;PMS7003;48821;48.796;2.396;2023-05-13T03:29:05;22.40;20.40;15.60
62778;PMS7003;48821;48.796;2.396;2023-05-13T03:30:17;24.80;20.60;15.00
62778;PMS7003;48821;48.796;2.396;2023-05-13T03:31:29;25.40;22.20;16.80
62778;PMS7003;48821;48.796;2.396;2023-05-13T03:32:41;22.40;20.20;15.00
62778;PMS7003;48821;48.796;2.396;2023-05-13T03:33:52;23.20;19.80;15.00
62778;PMS7003;48821;48.796;2.396;2023-05-13T03:35:04;24.80;22.00;15.20
62778;PMS7003;48821;48.796;2.396;2023-05-13T03:36:16;20.20;18.00;12.00
62778;PMS7003;48821;48.796;2.396;2023-05-13T03:37:28;24.20;18.80;11.40
62778;PMS7003;48821;48.796;2.396;2023-05-13T03:38:40;21.80;19.80;13.00
62778;PMS7003;48821;48.796;2.396;2023-05-13T03:39:52;22.00;21.00;14.20
62778;PMS7003;48821;48.796;2.396;2023-05-13T03:41:04;25.00;21.80;17.00
62778;PMS7003;48821;48.796;2.396;2023-05-13T03:42:16;24.20;21.00;13.00
62778;PMS7003;48821;48.796;2.396;2023-05-13T03:43:28;24.60;19.60;13.80
62778;PMS7003;48821;48.796;2.396;2023-05-13T03:44:40;29.00;22.20;14.40
62778;PMS7003;48821;48.796;2.396;2023-05-13T03:45:54;34.25;28.00;17.00
62778;PMS7003;48821;48.796;2.396;2023-05-13T03:47:05;29.00;23.33;15.00
62778;PMS7003;48821;48.796;2.396;2023-05-13T03:48:17;25.00;23.00;17.60
62778;PMS7003;48821;48.796;2.396;2023-05-13T03:49:30;31.25;27.00;19.38
62778;PMS7003;48821;48.796;2.396;2023-05-13T03:50:41;17.50;17.50;14.00
62778;PMS7003;48821;48.796;2.396;2023-05-13T03:51:52;28.20;26.20;17.00
62778;PMS7003;48821;48.796;2.396;2023-05-13T03:53:03;30.40;24.20;17.80
62778;PMS7003;48821;48.796;2.396;2023-05-13T03:54:14;34.33;29.00;20.00
62778;PMS7003;48821;48.796;2.396;2023-05-13T03:55:25;23.67;18.67;12.33
62778;PMS7003;48821;48.796;2.396;2023-05-13T03:56:37;32.00;29.00;18.40
62778;PMS7003;48821;48.796;2.396;2023-05-13T03:57:49;33.40;29.00;18.40
62778;PMS7003;48821;48.796;2.396;2023-05-13T03:59:01;33.60;31.80;20.00
62778;PMS7003;48821;48.796;2.396;2023-05-13T04:00:13;34.20;31.60;20.80
62778;PMS7003;48821;48.796;2.396;2023-05-13T04:01:25;35.20;31.00;19.60
62778;PMS7003;48821;48.796;2.396;2023-05-13T04:02:37;43.80;32.80;20.60
62778;PMS7003;48821;48.796;2.396;2023-05-13T04:03:49;33.20;28.60;19.20
62778;PMS7003;48821;48.796;2.396;2023-05-13T04:05:01;35.60;30.60;19.80
62778;PMS7003;48821;48.796;2.396;2023-05-13T04:06:13;40.60;32.60;20.40
62778;PMS7003;48821;48.796;2.396;2023-05-13T04:07:25;38.60;34.00;22.60
62778;PMS7003;48821;48.796;2.396;2023-05-13T04:08:37;47.20;38.00;23.20
62778;PMS7003;48821;48.796;2.396;2023-05-13T04:09:49;44.20;35.20;22.60
62778;PMS7003;48821;48.796;2.396;2023-05-13T04:11:01;46.00;36.00;22.60
62778;PMS7003;48821;48.796;2.396;2023-05-13T04:12:13;39.80;35.80;23.40
62778;PMS7003;48821;48.796;2.396;2023-05-13T04:13:24;42.00;35.00;22.50
62778;PMS7003;48821;48.796;2.396;2023-05-13T04:14:36;47.60;37.80;22.60
62778;PMS7003;48821;48.796;2.396;2023-05-13T04:15:48;49.60;40.20;23.00
62778;PMS7003;48821;48.796;2.396;2023-05-13T04:17:00;46.60;37.00;23.80
62778;PMS7003;48821;48.796;2.396;2023-05-13T04:18:12;51.20;40.40;25.80
62778;PMS7003;48821;48.796;2.396;2023-05-13T04:19:24;44.00;36.00;23.60
62778;PMS7003;48821;48.796;2.396;2023-05-13T04:20:37;44.40;34.60;23.00
62778;PMS7003;48821;48.796;2.396;2023-05-13T04:21:48;52.00;40.00;26.00
62778;PMS7003;48821;48.796;2.396;2023-05-13T04:23:00;43.40;34.60;23.60
62778;PMS7003;48821;48.796;2.396;2023-05-13T04:24:12;44.40;36.00;22.80
62778;PMS7003;48821;48.796;2.396;2023-05-13T04:25:24;52.00;42.00;25.00
62778;PMS7003;48821;48.796;2.396;2023-05-13T04:26:36;52.80;38.60;25.00
62778;PMS7003;48821;48.796;2.396;2023-05-13T04:27:48;45.80;37.20;23.00
62778;PMS7003;48821;48.796;2.396;2023-05-13T04:29:00;52.40;40.40;24.80
62778;PMS7003;48821;48.796;2.396;2023-05-13T04:30:12;47.80;38.00;24.20
62778;PMS7003;48821;48.796;2.396;2023-05-13T04:31:24;51.40;41.60;25.20
62778;PMS7003;48821;48.796;2.396;2023-05-13T04:32:36;50.40;41.80;24.40
62778;PMS7003;48821;48.796;2.396;2023-05-13T04:33:47;53.60;42.20;25.40
62778;PMS7003;48821;48.796;2.396;2023-05-13T04:34:59;44.20;37.20;23.20
62778;PMS7003;48821;48.796;2.396;2023-05-13T04:36:11;53.60;42.00;26.80
62778;PMS7003;48821;48.796;2.396;2023-05-13T04:37:23;48.60;41.00;24.60
62778;PMS7003;48821;48.796;2.396;2023-05-13T04:38:35;53.80;40.80;26.40
62778;PMS7003;48821;48.796;2.396;2023-05-13T04:39:47;49.00;39.60;26.40
62778;PMS7003;48821;48.796;2.396;2023-05-13T04:40:59;49.80;39.60;26.60
62778;PMS7003;48821;48.796;2.396;2023-05-13T04:42:12;46.40;36.20;23.60
62778;PMS7003;48821;48.796;2.396;2023-05-13T04:43:23;49.20;41.40;26.80
62778;PMS7003;48821;48.796;2.396;2023-05-13T04:44:35;37.20;32.80;23.40
62778;PMS7003;48821;48.796;2.396;2023-05-13T04:45:47;52.00;40.00;25.20
62778;PMS7003;48821;48.796;2.396;2023-05-13T04:46:59;51.40;39.40;25.40
62778;PMS7003;48821;48.796;2.396;2023-05-13T04:48:11;52.40;40.40;24.40
62778;PMS7003;48821;48.796;2.396;2023-05-13T04:49:23;50.60;40.00;25.20
62778;PMS7003;48821;48.796;2.396;2023-05-13T04:50:35;54.60;41.40;27.20
62778;PMS7003;48821;48.796;2.396;2023-05-13T04:51:47;58.20;44.00;26.40
62778;PMS7003;48821;48.796;2.396;2023-05-13T04:52:59;46.40;39.80;26.80
62778;PMS7003;48821;48.796;2.396;2023-05-13T04:54:11;48.00;39.60;22.80
62778;PMS7003;48821;48.796;2.396;2023-05-13T04:55:23;47.60;40.00;23.20
62778;PMS7003;48821;48.796;2.396;2023-05-13T04:56:35;51.40;41.40;26.00
62778;PMS7003;48821;48.796;2.396;2023-05-13T04:57:47;55.00;43.20;27.00
62778;PMS7003;48821;48.796;2.396;2023-05-13T04:58:59;52.80;40.00;25.00
62778;PMS7003;48821;48.796;2.396;2023-05-13T05:00:11;51.20;40.00;24.20
62778;PMS7003;48821;48.796;2.396;2023-05-13T05:01:23;45.60;35.20;23.60
62778;PMS7003;48821;48.796;2.396;2023-05-13T05:02:35;58.60;43.20;27.40
62778;PMS7003;48821;48.796;2.396;2023-05-13T05:03:47;52.20;39.60;22.40
62778;PMS7003;48821;48.796;2.396;2023-05-13T05:04:59;57.40;43.20;26.00
62778;PMS7003;48821;48.796;2.396;2023-05-13T05:06:11;53.60;44.60;28.40
62778;PMS7003;48821;48.796;2.396;2023-05-13T05:07:23;49.80;41.60;25.60
62778;PMS7003;48821;48.796;2.396;2023-05-13T05:08:34;51.00;38.50;26.00
62778;PMS7003;48821;48.796;2.396;2023-05-13T05:09:46;57.40;44.00;27.80
62778;PMS7003;48821;48.796;2.396;2023-05-13T05:10:59;54.00;45.00;28.00
62778;PMS7003;48821;48.796;2.396;2023-05-13T05:12:10;54.00;44.00;26.50
62778;PMS7003;48821;48.796;2.396;2023-05-13T05:13:22;54.60;42.00;27.40
62778;PMS7003;48821;48.796;2.396;2023-05-13T05:14:34;53.20;40.60;28.40
62778;PMS7003;48821;48.796;2.396;2023-05-13T05:15:46;55.00;42.60;27.80
62778;PMS7003;48821;48.796;2.396;2023-05-13T05:16:58;55.80;43.40;27.80
62778;PMS7003;48821;48.796;2.396;2023-05-13T05:18:10;56.40;42.60;26.80
62778;PMS7003;48821;48.796;2.396;2023-05-13T05:19:22;53.00;41.50;28.00
62778;PMS7003;48821;48.796;2.396;2023-05-13T05:20:36;58.00;43.80;26.40
62778;PMS7003;48821;48.796;2.396;2023-05-13T05:21:46;54.50;42.50;27.00
62778;PMS7003;48821;48.796;2.396;2023-05-13T05:22:58;55.60;44.00;27.20
62778;PMS7003;48821;48.796;2.396;2023-05-13T05:24:10;56.20;44.60;28.80
62778;PMS7003;48821;48.796;2.396;2023-05-13T05:25:22;53.60;44.00;28.00
62778;PMS7003;48821;48.796;2.396;2023-05-13T05:26:35;57.80;43.80;28.40
62778;PMS7003;48821;48.796;2.396;2023-05-13T05:27:46;43.40;35.80;22.20
62778;PMS7003;48821;48.796;2.396;2023-05-13T05:28:58;53.80;43.40;28.80
62778;PMS7003;48821;48.796;2.396;2023-05-13T05:30:11;56.60;43.20;27.40
62778;PMS7003;48821;48.796;2.396;2023-05-13T05:31:22;52.20;39.40;24.20
62778;PMS7003;48821;48.796;2.396;2023-05-13T05:32:34;53.40;43.20;27.20
62778;PMS7003;48821;48.796;2.396;2023-05-13T05:33:46;56.00;44.60;28.00
62778;PMS7003;48821;48.796;2.396;2023-05-13T05:34:58;51.20;40.80;24.80
62778;PMS7003;48821;48.796;2.396;2023-05-13T05:36:11;56.00;44.00;29.50
62778;PMS7003;48821;48.796;2.396;2023-05-13T05:37:23;52.40;41.00;26.20
62778;PMS7003;48821;48.796;2.396;2023-05-13T05:38:35;59.60;44.60;27.00
62778;PMS7003;48821;48.796;2.396;2023-05-13T05:39:47;58.00;45.00;28.40
62778;PMS7003;48821;48.796;2.396;2023-05-13T05:40:59;53.00;43.20;27.00
62778;PMS7003;48821;48.796;2.396;2023-05-13T05:42:11;49.00;42.00;27.40
62778;PMS7003;48821;48.796;2.396;2023-05-13T05:43:23;56.60;45.40;29.00
62778;PMS7003;48821;48.796;2.396;2023-05-13T05:44:35;55.20;43.00;27.80
62778;PMS7003;48821;48.796;2.396;2023-05-13T05:45:47;53.40;43.00;28.00
62778;PMS7003;48821;48.796;2.396;2023-05-13T05:46:59;55.40;43.60;27.40
62778;PMS7003;48821;48.796;2.396;2023-05-13T05:48:11;54.20;42.20;28.00
62778;PMS7003;48821;48.796;2.396;2023-05-13T05:49:23;59.40;42.60;26.00
62778;PMS7003;48821;48.796;2.396;2023-05-13T05:50:35;56.80;45.00;27.40
62778;PMS7003;48821;48.796;2.396;2023-05-13T05:51:47;58.00;43.80;28.40
62778;PMS7003;48821;48.796;2.396;2023-05-13T05:52:59;48.60;41.40;27.40
62778;PMS7003;48821;48.796;2.396;2023-05-13T05:54:11;54.60;43.60;28.00
62778;PMS7003;48821;48.796;2.396;2023-05-13T05:55:23;54.60;42.60;27.40
62778;PMS7003;48821;48.796;2.396;2023-05-13T05:56:35;56.00;44.20;28.80
62778;PMS7003;48821;48.796;2.396;2023-05-13T05:57:47;50.80;40.20;25.00
62778;PMS7003;48821;48.796;2.396;2023-05-13T05:58:59;63.80;47.40;28.40
62778;PMS7003;48821;48.796;2.396;2023-05-13T06:00:11;57.80;41.80;27.60
62778;PMS7003;48821;48.796;2.396;2023-05-13T06:01:23;60.00;44.40;29.40
62778;PMS7003;48821;48.796;2.396;2023-05-13T06:02:35;55.80;41.80;28.20
62778;PMS7003;48821;48.796;2.396;2023-05-13T06:03:47;54.00;44.20;28.20
62778;PMS7003;48821;48.796;2.396;2023-05-13T06:04:59;58.00;44.80;28.20
62778;PMS7003;48821;48.796;2.396;2023-05-13T06:06:11;54.80;42.40;27.80
62778;PMS7003;48821;48.796;2.396;2023-05-13T06:07:23;52.00;42.20;27.20
62778;PMS7003;48821;48.796;2.396;2023-05-13T06:08:35;53.80;43.40;28.00
62778;PMS7003;48821;48.796;2.396;2023-05-13T06:09:47;56.40;46.20;29.60
62778;PMS7003;48821;48.796;2.396;2023-05-13T06:10:59;51.60;42.80;26.60
62778;PMS7003;48821;48.796;2.396;2023-05-13T06:12:11;58.00;45.60;29.40
62778;PMS7003;48821;48.796;2.396;2023-05-13T06:13:23;55.00;44.00;28.80
62778;PMS7003;48821;48.796;2.396;2023-05-13T06:14:35;56.40;43.00;28.00
62778;PMS7003;48821;48.796;2.396;2023-05-13T06:15:47;49.80;38.00;24.80
62778;PMS7003;48821;48.796;2.396;2023-05-13T06:16:59;60.80;45.40;27.40
62778;PMS7003;48821;48.796;2.396;2023-05-13T06:18:11;52.60;44.00;28.80
62778;PMS7003;48821;48.796;2.396;2023-05-13T06:19:23;55.60;43.60;25.80
62778;PMS7003;48821;48.796;2.396;2023-05-13T06:20:35;55.80;44.60;28.20
62778;PMS7003;48821;48.796;2.396;2023-05-13T06:21:47;52.60;43.00;26.20
62778;PMS7003;48821;48.796;2.396;2023-05-13T06:22:59;49.20;38.80;24.80
62778;PMS7003;48821;48.796;2.396;2023-05-13T06:24:11;58.40;44.60;28.60
62778;PMS7003;48821;48.796;2.396;2023-05-13T06:25:23;58.40;46.00;26.80
62778;PMS7003;48821;48.796;2.396;2023-05-13T06:26:35;49.40;40.20;24.00
62778;PMS7003;48821;48.796;2.396;2023-05-13T06:27:47;51.40;42.20;26.40
62778;PMS7003;48821;48.796;2.396;2023-05-13T06:28:59;54.00;44.20;28.40
62778;PMS7003;48821;48.796;2.396;2023-05-13T06:30:11;51.60;40.80;25.80
62778;PMS7003;48821;48.796;2.396;2023-05-13T06:31:23;53.60;43.20;27.80
62778;PMS7003;48821;48.796;2.396;2023-05-13T06:32:35;52.60;42.20;27.60
62778;PMS7003;48821;48.796;2.396;2023-05-13T06:33:47;53.40;43.60;28.60
62778;PMS7003;48821;48.796;2.396;2023-05-13T06:34:59;50.80;43.20;28.20
62778;PMS7003;48821;48.796;2.396;2023-05-13T06:36:10;48.20;40.00;26.00
62778;PMS7003;48821;48.796;2.396;2023-05-13T06:37:22;50.00;41.50;27.50
62778;PMS7003;48821;48.796;2.396;2023-05-13T06:38:34;52.60;40.20;24.80
62778;PMS7003;48821;48.796;2.396;2023-05-13T06:39:46;56.60;41.80;24.60
62778;PMS7003;48821;48.796;2.396;2023-05-13T06:40:58;52.60;43.40;26.00
62778;PMS7003;48821;48.796;2.396;2023-05-13T06:42:10;48.00;39.20;24.00
62778;PMS7003;48821;48.796;2.396;2023-05-13T06:43:22;53.40;42.80;27.20
62778;PMS7003;48821;48.796;2.396;2023-05-13T06:44:34;51.80;41.00;25.20
62778;PMS7003;48821;48.796;2.396;2023-05-13T06:45:46;51.60;40.60;25.00
62778;PMS7003;48821;48.796;2.396;2023-05-13T06:46:57;51.50;41.50;27.50
62778;PMS7003;48821;48.796;2.396;2023-05-13T06:48:09;53.60;41.20;26.00
62778;PMS7003;48821;48.796;2.396;2023-05-13T06:49:21;54.60;42.60;26.80
62778;PMS7003;48821;48.796;2.396;2023-05-13T06:50:34;54.50;43.50;28.00